sensor_id;sensor_type;location;lat;lon;timestamp;pressure;altitude;pressure_sealevel;temperature;humidity
74435;BME280;62867;52.038;29.256;2022-09-03T00:03:40;1030.9;;;10.3;62.6
74435;BME280;62867;52.038;29.256;2022-09-03T00:09:55;1030.9;;;10.3;62.6
74435;BME280;62867;52.038;29.256;2022-09-03T00:13:06;1030.9;;;10.4;62.5
74435;BME280;62867;52.038;29.256;2022-09-03T00:18:42;1030.8;;;10.4;62.5
74435;BME280;62867;52.038;29.256;2022-09-03T00:23:48;1030.8;;;10.4;62.5
74435;BME280;62867;52.038;29.256;2022-09-03T00:28:35;1030.8;;;10.3;62.6
74435;BME280;62867;52.038;29.256;2022-09-03T00:33:07;1030.8;;;10.3;62.7
74435;BME280;62867;52.038;29.256;2022-09-03T00:38:06;1030.8;;;10.3;62.7
74435;BME280;62867;52.038;29.256;2022-09-03T00:43:21;1030.8;;;10.2;62.8
74435;BME280;62867;52.038;29.256;2022-09-03T00:48:56;1030.7;;;10.2;63
74435;BME280;62867;52.038;29.256;2022-09-03T00:53:52;1030.8;;;10.2;62.9
74435;BME280;62867;52.038;29.256;2022-09-03T00:58:48;1030.8;;;10.2;63
74435;BME280;62867;52.038;29.256;2022-09-03T01:04:00;1030.8;;;10.2;62.9
74435;BME280;62867;52.038;29.256;2022-09-03T01:08:53;1030.8;;;10.2;62.8
74435;BME280;62867;52.038;29.256;2022-09-03T01:13:42;1030.8;;;10.2;62.7
74435;BME280;62867;52.038;29.256;2022-09-03T01:18:46;1030.9;;;10.2;62.6
74435;BME280;62867;52.038;29.256;2022-09-03T01:23:21;1030.9;;;10.2;62.5
74435;BME280;62867;52.038;29.256;2022-09-03T01:28:28;1030.9;;;10.2;62.5
74435;BME280;62867;52.038;29.256;2022-09-03T01:33:32;1030.9;;;10.1;62.6
74435;BME280;62867;52.038;29.256;2022-09-03T01:38:45;1030.9;;;10.1;62.8
74435;BME280;62867;52.038;29.256;2022-09-03T01:43:31;1030.9;;;10.1;62.7
74435;BME280;62867;52.038;29.256;2022-09-03T01:48:45;1030.9;;;10.1;62.7
74435;BME280;62867;52.038;29.256;2022-09-03T01:58:32;1030.9;;;10;62.7
74435;BME280;62867;52.038;29.256;2022-09-03T02:03:36;1030.9;;;10;62.7
74435;BME280;62867;52.038;29.256;2022-09-03T02:08:38;1030.9;;;10;62.6
74435;BME280;62867;52.038;29.256;2022-09-03T02:13:16;1030.9;;;9.9;62.5
74435;BME280;62867;52.038;29.256;2022-09-03T02:18:07;1031;;;9.9;62.4
74435;BME280;62867;52.038;29.256;2022-09-03T02:23:06;1031;;;9.8;62.5
74435;BME280;62867;52.038;29.256;2022-09-03T02:28:40;1031;;;9.7;62.8
74435;BME280;62867;52.038;29.256;2022-09-03T02:33:38;1031;;;9.7;62.5
74435;BME280;62867;52.038;29.256;2022-09-03T02:38:36;1031;;;9.6;62.7
74435;BME280;62867;52.038;29.256;2022-09-03T02:43:41;1031.1;;;9.5;62.8
74435;BME280;62867;52.038;29.256;2022-09-03T02:48:40;1031.2;;;9.4;63.1
74435;BME280;62867;52.038;29.256;2022-09-03T02:53:38;1031.2;;;9.4;63.5
74435;BME280;62867;52.038;29.256;2022-09-03T02:58:28;1031.2;;;9.3;63.6
74435;BME280;62867;52.038;29.256;2022-09-03T03:03:36;1031.2;;;9.3;64
74435;BME280;62867;52.038;29.256;2022-09-03T03:08:17;1031.3;;;9.3;64.1
74435;BME280;62867;52.038;29.256;2022-09-03T03:13:28;1031.3;;;9.3;64.2
74435;BME280;62867;52.038;29.256;2022-09-03T03:18:26;1031.3;;;9.3;64.3
74435;BME280;62867;52.038;29.256;2022-09-03T03:23:48;1031.3;;;9.2;64.5
74435;BME280;62867;52.038;29.256;2022-09-03T03:28:42;1031.2;;;9.2;64.8
74435;BME280;62867;52.038;29.256;2022-09-03T03:33:06;1031.3;;;9.1;65
74435;BME280;62867;52.038;29.256;2022-09-03T03:38:30;1031.3;;;9.1;65.4
74435;BME280;62867;52.038;29.256;2022-09-03T03:43:54;1031.3;;;9.1;65.3
74435;BME280;62867;52.038;29.256;2022-09-03T03:48:56;1031.3;;;9.2;65.5
74435;BME280;62867;52.038;29.256;2022-09-03T03:53:30;1031.3;;;9.3;65.6
74435;BME280;62867;52.038;29.256;2022-09-03T03:58:18;1031.3;;;9.4;65.6
74435;BME280;62867;52.038;29.256;2022-09-03T04:03:16;1031.3;;;9.4;65.6
74435;BME280;62867;52.038;29.256;2022-09-03T04:08:37;1031.3;;;9.6;65.7
74435;BME280;62867;52.038;29.256;2022-09-03T04:13:16;1031.4;;;9.7;65.6
74435;BME280;62867;52.038;29.256;2022-09-03T04:18:18;1031.4;;;9.7;65.9
74435;BME280;62867;52.038;29.256;2022-09-03T04:23:45;1031.4;;;9.8;66
74435;BME280;62867;52.038;29.256;2022-09-03T04:28:54;1031.4;;;9.9;66.1
74435;BME280;62867;52.038;29.256;2022-09-03T04:33:38;1031.4;;;10;66
74435;BME280;62867;52.038;29.256;2022-09-03T04:38:57;1031.4;;;10;66.3
74435;BME280;62867;52.038;29.256;2022-09-03T04:43:56;1031.4;;;10.2;66.3
74435;BME280;62867;52.038;29.256;2022-09-03T04:48:08;1031.4;;;10.4;66.5
74435;BME280;62867;52.038;29.256;2022-09-03T04:53:08;1031.4;;;10.6;66.1
74435;BME280;62867;52.038;29.256;2022-09-03T04:58:28;1031.4;;;10.8;65.9
74435;BME280;62867;52.038;29.256;2022-09-03T05:03:52;1031.5;;;11.1;65.6
74435;BME280;62867;52.038;29.256;2022-09-03T05:08:38;1031.5;;;11.4;65.4
74435;BME280;62867;52.038;29.256;2022-09-03T05:13:42;1031.4;;;11.5;65.5
74435;BME280;62867;52.038;29.256;2022-09-03T05:18:40;1031.4;;;11.7;65.3
74435;BME280;62867;52.038;29.256;2022-09-03T05:23:29;1031.5;;;11.9;64.9
74435;BME280;62867;52.038;29.256;2022-09-03T05:28:29;1031.5;;;12.2;64.2
74435;BME280;62867;52.038;29.256;2022-09-03T05:33:40;1031.4;;;12.8;62.4
74435;BME280;62867;52.038;29.256;2022-09-03T05:38:08;1031.4;;;13.3;60.9
74435;BME280;62867;52.038;29.256;2022-09-03T05:43:06;1031.5;;;13.6;60.7
74435;BME280;62867;52.038;29.256;2022-09-03T05:48:06;1031.5;;;14;58.4
74435;BME280;62867;52.038;29.256;2022-09-03T05:53:54;1031.4;;;14.7;55.6
74435;BME280;62867;52.038;29.256;2022-09-03T05:58:31;1031.4;;;15;55.1
74435;BME280;62867;52.038;29.256;2022-09-03T06:03:30;1031.4;;;15.1;55.7
74435;BME280;62867;52.038;29.256;2022-09-03T06:08:20;1031.4;;;15.3;56
74435;BME280;62867;52.038;29.256;2022-09-03T06:13:54;1031.3;;;15.5;54.1
74435;BME280;62867;52.038;29.256;2022-09-03T06:18:54;1031.3;;;16;51.3
74435;BME280;62867;52.038;29.256;2022-09-03T06:23:29;1031.3;;;16.5;49.2
74435;BME280;62867;52.038;29.256;2022-09-03T06:28:06;1031.3;;;16.8;46.9
74435;BME280;62867;52.038;29.256;2022-09-03T06:33:06;1031.3;;;17;46.9
74435;BME280;62867;52.038;29.256;2022-09-03T06:38:38;1031.3;;;17.4;45.9
74435;BME280;62867;52.038;29.256;2022-09-03T06:43:16;1031.3;;;17.7;45.4
74435;BME280;62867;52.038;29.256;2022-09-03T06:48:06;1031.3;;;18.1;44.3
74435;BME280;62867;52.038;29.256;2022-09-03T06:53:41;1031.2;;;18.3;43.9
74435;BME280;62867;52.038;29.256;2022-09-03T06:58:57;1031.3;;;18.7;43
74435;BME280;62867;52.038;29.256;2022-09-03T07:03:19;1031.2;;;18.8;41.6
74435;BME280;62867;52.038;29.256;2022-09-03T07:08:54;1031.3;;;19.1;40.7
74435;BME280;62867;52.038;29.256;2022-09-03T07:13:54;1031.3;;;19.3;39.3
74435;BME280;62867;52.038;29.256;2022-09-03T07:18:30;1031.3;;;19.2;39.2
74435;BME280;62867;52.038;29.256;2022-09-03T07:23:06;1031.3;;;19.3;38
74435;BME280;62867;52.038;29.256;2022-09-03T07:28:40;1031.2;;;19.5;38.5
74435;BME280;62867;52.038;29.256;2022-09-03T07:33:53;1031.3;;;19.7;38.1
74435;BME280;62867;52.038;29.256;2022-09-03T07:38:38;1031.3;;;19.9;37.5
74435;BME280;62867;52.038;29.256;2022-09-03T07:43:39;1031.2;;;20.2;37.6
74435;BME280;62867;52.038;29.256;2022-09-03T07:48:40;1031.2;;;20.5;36.7
74435;BME280;62867;52.038;29.256;2022-09-03T07:53:06;1031.3;;;20.7;35.9
74435;BME280;62867;52.038;29.256;2022-09-03T07:58:06;1031.2;;;20.8;35.1
74435;BME280;62867;52.038;29.256;2022-09-03T08:03:54;1031.1;;;21;33.6
74435;BME280;62867;52.038;29.256;2022-09-03T08:08:16;1031.1;;;21.2;32.9
74435;BME280;62867;52.038;29.256;2022-09-03T08:13:26;1031.1;;;21.4;33.2
74435;BME280;62867;52.038;29.256;2022-09-03T08:18:28;1031;;;21.7;31.8
74435;BME280;62867;52.038;29.256;2022-09-03T08:23:45;1031;;;22;31.4
74435;BME280;62867;52.038;29.256;2022-09-03T08:28:54;1030.9;;;22.1;31.2
74435;BME280;62867;52.038;29.256;2022-09-03T08:33:30;1031;;;22.2;32.1
74435;BME280;62867;52.038;29.256;2022-09-03T08:38:31;1031;;;22.2;31.7
74435;BME280;62867;52.038;29.256;2022-09-03T08:44:28;1031;;;22.3;32
74435;BME280;62867;52.038;29.256;2022-09-03T08:48:54;1031;;;22.4;30.9
74435;BME280;62867;52.038;29.256;2022-09-03T08:53:33;1031;;;22.6;30.5
74435;BME280;62867;52.038;29.256;2022-09-03T08:58:15;1031;;;22.7;29.7
74435;BME280;62867;52.038;29.256;2022-09-03T09:03:24;1030.9;;;22.8;28.8
74435;BME280;62867;52.038;29.256;2022-09-03T09:08:32;1030.8;;;22.9;28.7
74435;BME280;62867;52.038;29.256;2022-09-03T09:13:28;1030.7;;;23.1;28.8
74435;BME280;62867;52.038;29.256;2022-09-03T09:18:31;1030.7;;;23.3;28.5
74435;BME280;62867;52.038;29.256;2022-09-03T09:23:45;1030.7;;;23.5;27.6
74435;BME280;62867;52.038;29.256;2022-09-03T09:28:45;1030.7;;;23.6;27.6
74435;BME280;62867;52.038;29.256;2022-09-03T09:33:34;1030.7;;;23.8;27.8
74435;BME280;62867;52.038;29.256;2022-09-03T09:38:52;1030.7;;;23.9;28.1
74435;BME280;62867;52.038;29.256;2022-09-03T09:44:02;1030.7;;;24;28
74435;BME280;62867;52.038;29.256;2022-09-03T09:48:27;1030.7;;;24.2;27.6
74435;BME280;62867;52.038;29.256;2022-09-03T09:53:07;1030.6;;;24.4;27.5
74435;BME280;62867;52.038;29.256;2022-09-03T09:58:40;1030.6;;;24.5;26.1
74435;BME280;62867;52.038;29.256;2022-09-03T10:03:56;1030.5;;;24.6;25.3
74435;BME280;62867;52.038;29.256;2022-09-03T10:08:40;1030.5;;;24.8;25.5
74435;BME280;62867;52.038;29.256;2022-09-03T10:13:45;1030.5;;;25.1;25.6
74435;BME280;62867;52.038;29.256;2022-09-03T10:18:48;1030.4;;;25.2;25.3
74435;BME280;62867;52.038;29.256;2022-09-03T10:23:24;1030.4;;;25.4;24.8
74435;BME280;62867;52.038;29.256;2022-09-03T10:28:30;1030.4;;;25.6;25.3
74435;BME280;62867;52.038;29.256;2022-09-03T10:34:09;1030.3;;;25.8;24.9
74435;BME280;62867;52.038;29.256;2022-09-03T10:38:14;1030.2;;;26.1;25
74435;BME280;62867;52.038;29.256;2022-09-03T10:48:27;1030.2;;;26.7;24.3
74435;BME280;62867;52.038;29.256;2022-09-03T11:08:22;1029.9;;;26.8;23.3
74435;BME280;62867;52.038;29.256;2022-09-03T11:13:57;1029.9;;;26.9;24
74435;BME280;62867;52.038;29.256;2022-09-03T11:18:56;1029.9;;;27;23.5
74435;BME280;62867;52.038;29.256;2022-09-03T11:23:31;1029.9;;;26.8;23.9
74435;BME280;62867;52.038;29.256;2022-09-03T11:28:15;1029.9;;;26.7;24.5
74435;BME280;62867;52.038;29.256;2022-09-03T11:33:09;1029.8;;;26.4;23.6
74435;BME280;62867;52.038;29.256;2022-09-03T11:38:20;1029.7;;;26.3;22.1
74435;BME280;62867;52.038;29.256;2022-09-03T11:43:30;1029.6;;;25.4;25.6
74435;BME280;62867;52.038;29.256;2022-09-03T11:48:37;1029.6;;;24.7;26.5
74435;BME280;62867;52.038;29.256;2022-09-03T11:54:01;1029.6;;;24.3;26.7
74435;BME280;62867;52.038;29.256;2022-09-03T11:58:44;1029.6;;;24.3;26.7
74435;BME280;62867;52.038;29.256;2022-09-03T12:03:47;1029.6;;;24.1;28.3
74435;BME280;62867;52.038;29.256;2022-09-03T12:09:34;1029.6;;;23.7;28.9
74435;BME280;62867;52.038;29.256;2022-09-03T12:13:50;1029.5;;;23.3;30.6
74435;BME280;62867;52.038;29.256;2022-09-03T12:18:09;1029.5;;;23.2;30.8
74435;BME280;62867;52.038;29.256;2022-09-03T12:23:09;1029.4;;;22.9;32.6
74435;BME280;62867;52.038;29.256;2022-09-03T12:28:10;1029.4;;;22.6;31.6
74435;BME280;62867;52.038;29.256;2022-09-03T12:33:58;1029.4;;;22.5;34.8
74435;BME280;62867;52.038;29.256;2022-09-03T12:38:42;1029.3;;;22.4;35
74435;BME280;62867;52.038;29.256;2022-09-03T12:43:57;1029.3;;;22.3;34.7
74435;BME280;62867;52.038;29.256;2022-09-03T12:49:13;1029.3;;;22.5;35.1
74435;BME280;62867;52.038;29.256;2022-09-03T12:53:42;1029.3;;;22.1;36.2
74435;BME280;62867;52.038;29.256;2022-09-03T12:58:34;1029.3;;;21.7;35.8
74435;BME280;62867;52.038;29.256;2022-09-03T13:04:08;1029.3;;;21.4;36.8
74435;BME280;62867;52.038;29.256;2022-09-03T13:08:12;1029.2;;;21.2;37.8
74435;BME280;62867;52.038;29.256;2022-09-03T13:13:22;1029.2;;;21.2;36
74435;BME280;62867;52.038;29.256;2022-09-03T13:18:14;1029.2;;;21.1;36.5
74435;BME280;62867;52.038;29.256;2022-09-03T13:24:13;1029.2;;;21.1;35.6
74435;BME280;62867;52.038;29.256;2022-09-03T13:29:15;1029.2;;;21.1;37.3
74435;BME280;62867;52.038;29.256;2022-09-03T13:33:17;1029.1;;;21.1;35.8
74435;BME280;62867;52.038;29.256;2022-09-03T13:38:34;1029.1;;;21.1;35.2
74435;BME280;62867;52.038;29.256;2022-09-03T13:44:05;1029.2;;;20.9;36.5
74435;BME280;62867;52.038;29.256;2022-09-03T13:48:58;1029.1;;;20.8;35.2
74435;BME280;62867;52.038;29.256;2022-09-03T13:54:34;1029.1;;;20.7;34.8
74435;BME280;62867;52.038;29.256;2022-09-03T13:58:17;1029.1;;;20.6;35.2
74435;BME280;62867;52.038;29.256;2022-09-03T14:03:09;1029.1;;;20.5;36.2
74435;BME280;62867;52.038;29.256;2022-09-03T14:13:27;1029;;;20.2;37.1
74435;BME280;62867;52.038;29.256;2022-09-03T14:18:52;1029;;;20;40
74435;BME280;62867;52.038;29.256;2022-09-03T14:23:44;1029;;;19.8;40.8
74435;BME280;62867;52.038;29.256;2022-09-03T14:28:41;1029;;;19.6;41.8
74435;BME280;62867;52.038;29.256;2022-09-03T14:33:37;1028.9;;;19.4;42.8
74435;BME280;62867;52.038;29.256;2022-09-03T14:39:02;1028.9;;;19.2;43.2
74435;BME280;62867;52.038;29.256;2022-09-03T14:43:55;1028.8;;;19.1;43.2
74435;BME280;62867;52.038;29.256;2022-09-03T14:54:08;1028.8;;;18.8;42.7
74435;BME280;62867;52.038;29.256;2022-09-03T14:59:04;1028.9;;;18.7;43.2
74435;BME280;62867;52.038;29.256;2022-09-03T15:14:59;1028.8;;;18.2;45.3
74435;BME280;62867;52.038;29.256;2022-09-03T15:18:31;1028.7;;;18;45.7
74435;BME280;62867;52.038;29.256;2022-09-03T15:23:49;1028.8;;;17.9;46.5
74435;BME280;62867;52.038;29.256;2022-09-03T15:28:36;1028.8;;;17.7;45.3
74435;BME280;62867;52.038;29.256;2022-09-03T15:33:46;1028.8;;;17.6;46.7
74435;BME280;62867;52.038;29.256;2022-09-03T15:38:08;1028.7;;;17.6;46.3
74435;BME280;62867;52.038;29.256;2022-09-03T15:43:18;1028.7;;;17.4;46.2
74435;BME280;62867;52.038;29.256;2022-09-03T15:48:09;1028.7;;;17.3;46.4
74435;BME280;62867;52.038;29.256;2022-09-03T15:53:32;1028.7;;;17.2;46.8
74435;BME280;62867;52.038;29.256;2022-09-03T15:59:03;1028.7;;;17;47.6
74435;BME280;62867;52.038;29.256;2022-09-03T16:03:42;1028.7;;;16.8;47.7
74435;BME280;62867;52.038;29.256;2022-09-03T16:14:04;1028.7;;;16.4;49.5
74435;BME280;62867;52.038;29.256;2022-09-03T16:19:01;1028.7;;;16.2;50.8
74435;BME280;62867;52.038;29.256;2022-09-03T16:23:58;1028.7;;;16;51.1
74435;BME280;62867;52.038;29.256;2022-09-03T16:28:08;1028.7;;;15.8;51.6
74435;BME280;62867;52.038;29.256;2022-09-03T16:33:37;1028.8;;;15.6;52.3
74435;BME280;62867;52.038;29.256;2022-09-03T16:38:24;1028.8;;;15.5;52.2
74435;BME280;62867;52.038;29.256;2022-09-03T16:43:45;1028.8;;;15.4;52.3
74435;BME280;62867;52.038;29.256;2022-09-03T16:48:23;1028.8;;;15.2;51.9
74435;BME280;62867;52.038;29.256;2022-09-03T16:53:39;1028.9;;;15.1;52.5
74435;BME280;62867;52.038;29.256;2022-09-03T16:58:52;1029;;;15;52.8
74435;BME280;62867;52.038;29.256;2022-09-03T17:04:04;1029;;;14.8;52.9
74435;BME280;62867;52.038;29.256;2022-09-03T17:08:43;1029;;;14.6;53.5
74435;BME280;62867;52.038;29.256;2022-09-03T17:14:01;1029.1;;;14.5;53.8
74435;BME280;62867;52.038;29.256;2022-09-03T17:24:18;1029.1;;;14.3;54.4
74435;BME280;62867;52.038;29.256;2022-09-03T17:28:21;1029.1;;;14.2;54.8
74435;BME280;62867;52.038;29.256;2022-09-03T17:33:56;1029.2;;;14.1;54.8
74435;BME280;62867;52.038;29.256;2022-09-03T17:44:01;1029.3;;;14;54.7
74435;BME280;62867;52.038;29.256;2022-09-03T17:48:46;1029.3;;;14;54.6
74435;BME280;62867;52.038;29.256;2022-09-03T17:53:47;1029.3;;;13.9;54.7
74435;BME280;62867;52.038;29.256;2022-09-03T18:03:24;1029.3;;;13.7;54.9
74435;BME280;62867;52.038;29.256;2022-09-03T18:09:34;1029.4;;;13.6;55.5
74435;BME280;62867;52.038;29.256;2022-09-03T18:13:20;1029.4;;;13.5;55.6
74435;BME280;62867;52.038;29.256;2022-09-03T18:18:23;1029.4;;;13.4;55.9
74435;BME280;62867;52.038;29.256;2022-09-03T18:23:30;1029.5;;;13.2;56.4
74435;BME280;62867;52.038;29.256;2022-09-03T18:28:58;1029.5;;;13.2;56.2
74435;BME280;62867;52.038;29.256;2022-09-03T18:33:40;1029.4;;;13.1;56.4
74435;BME280;62867;52.038;29.256;2022-09-03T18:38:34;1029.4;;;13.1;56.2
74435;BME280;62867;52.038;29.256;2022-09-03T18:43:40;1029.4;;;13;56.1
74435;BME280;62867;52.038;29.256;2022-09-03T18:48:59;1029.4;;;13;56.1
74435;BME280;62867;52.038;29.256;2022-09-03T18:54:01;1029.5;;;12.9;56.3
74435;BME280;62867;52.038;29.256;2022-09-03T18:58:37;1029.5;;;12.9;56.6
74435;BME280;62867;52.038;29.256;2022-09-03T19:03:28;1029.4;;;12.8;56.9
74435;BME280;62867;52.038;29.256;2022-09-03T19:08:13;1029.4;;;12.8;57.1
74435;BME280;62867;52.038;29.256;2022-09-03T19:13:40;1029.4;;;12.7;57.1
74435;BME280;62867;52.038;29.256;2022-09-03T19:18:21;1029.5;;;12.7;57.3
74435;BME280;62867;52.038;29.256;2022-09-03T19:23:16;1029.5;;;12.7;57.7
74435;BME280;62867;52.038;29.256;2022-09-03T19:28:44;1029.5;;;12.7;57.6
74435;BME280;62867;52.038;29.256;2022-09-03T19:34:12;1029.5;;;12.7;57.7
74435;BME280;62867;52.038;29.256;2022-09-03T19:38:47;1029.6;;;12.7;57.7
74435;BME280;62867;52.038;29.256;2022-09-03T19:44:06;1029.6;;;12.7;57.9
74435;BME280;62867;52.038;29.256;2022-09-03T19:49:00;1029.6;;;12.7;57.9
74435;BME280;62867;52.038;29.256;2022-09-03T19:53:11;1029.6;;;12.7;58.5
74435;BME280;62867;52.038;29.256;2022-09-03T19:58:20;1029.7;;;12.7;59
74435;BME280;62867;52.038;29.256;2022-09-03T20:03:41;1029.7;;;12.7;59.3
74435;BME280;62867;52.038;29.256;2022-09-03T20:08:59;1029.7;;;12.6;59.8
74435;BME280;62867;52.038;29.256;2022-09-03T20:13:40;1029.8;;;12.6;59.8
74435;BME280;62867;52.038;29.256;2022-09-03T20:23:47;1029.8;;;12.4;59.6
74435;BME280;62867;52.038;29.256;2022-09-03T20:28:49;1029.8;;;12.3;59.6
74435;BME280;62867;52.038;29.256;2022-09-03T20:34:40;1029.8;;;12.3;59.6
74435;BME280;62867;52.038;29.256;2022-09-03T20:40:01;1029.8;;;12.2;59.5
74435;BME280;62867;52.038;29.256;2022-09-03T20:48:25;1029.9;;;12.1;59.7
74435;BME280;62867;52.038;29.256;2022-09-03T20:53:22;1029.9;;;12;59.8
74435;BME280;62867;52.038;29.256;2022-09-03T20:59:02;1029.9;;;11.9;60.1
74435;BME280;62867;52.038;29.256;2022-09-03T21:03:57;1029.9;;;11.8;60.5
74435;BME280;62867;52.038;29.256;2022-09-03T21:09:37;1029.9;;;11.7;60.8
74435;BME280;62867;52.038;29.256;2022-09-03T21:13:43;1029.9;;;11.7;60.9
74435;BME280;62867;52.038;29.256;2022-09-03T21:24:13;1030;;;11.7;61.1
74435;BME280;62867;52.038;29.256;2022-09-03T21:28:19;1030.1;;;11.6;60.7
74435;BME280;62867;52.038;29.256;2022-09-03T21:33:18;1030.1;;;11.6;60.7
74435;BME280;62867;52.038;29.256;2022-09-03T21:38:32;1030;;;11.6;60.7
74435;BME280;62867;52.038;29.256;2022-09-03T21:43:21;1030;;;11.6;60.7
74435;BME280;62867;52.038;29.256;2022-09-03T21:48:29;1030;;;11.5;60.8
74435;BME280;62867;52.038;29.256;2022-09-03T21:53:19;1030.1;;;11.5;61.2
74435;BME280;62867;52.038;29.256;2022-09-03T21:58:37;1030.1;;;11.5;61.4
74435;BME280;62867;52.038;29.256;2022-09-03T22:03:40;1030.1;;;11.5;61.6
74435;BME280;62867;52.038;29.256;2022-09-03T22:08:24;1030.1;;;11.5;61.8
74435;BME280;62867;52.038;29.256;2022-09-03T22:14:02;1030.1;;;11.5;61.9
74435;BME280;62867;52.038;29.256;2022-09-03T22:18:44;1030.1;;;11.5;61.7
74435;BME280;62867;52.038;29.256;2022-09-03T22:23:10;1030.1;;;11.5;61.5
74435;BME280;62867;52.038;29.256;2022-09-03T22:28:37;1030.1;;;11.5;61.5
74435;BME280;62867;52.038;29.256;2022-09-03T22:33:43;1030;;;11.5;61.4
74435;BME280;62867;52.038;29.256;2022-09-03T22:39:01;1030;;;11.4;61.4
74435;BME280;62867;52.038;29.256;2022-09-03T22:43:41;1030;;;11.5;61.5
74435;BME280;62867;52.038;29.256;2022-09-03T22:58:47;1030;;;11.3;61.4
74435;BME280;62867;52.038;29.256;2022-09-03T23:03:23;1030.1;;;11.3;61.5
74435;BME280;62867;52.038;29.256;2022-09-03T23:08:40;1030;;;11.2;62
74435;BME280;62867;52.038;29.256;2022-09-03T23:13:25;1030.1;;;11.2;62.1
74435;BME280;62867;52.038;29.256;2022-09-03T23:18:18;1030.1;;;11.3;62.4
74435;BME280;62867;52.038;29.256;2022-09-03T23:23:19;1030.1;;;11.4;62.4
74435;BME280;62867;52.038;29.256;2022-09-03T23:28:58;1030.1;;;11.5;62.3
